createdAt,value
2022-10-25T00:04:28.539Z,2.27
2022-10-25T00:09:30.172Z,2.10
2022-10-25T00:14:31.830Z,1.73
2022-10-25T00:19:33.493Z,2.13
2022-10-25T00:24:35.118Z,1.70
2022-10-25T00:29:36.849Z,1.67
2022-10-25T00:34:40.537Z,1.20
2022-10-25T00:39:43.411Z,2.00
2022-10-25T00:44:50.534Z,1.80
2022-10-25T00:49:58.161Z,1.60
2022-10-25T00:54:59.777Z,2.10
2022-10-25T01:00:02.005Z,1.20
2022-10-25T01:05:03.790Z,1.87
2022-10-25T01:10:05.644Z,1.53
2022-10-25T01:15:07.717Z,1.40
2022-10-25T01:20:24.537Z,1.40
2022-10-25T01:25:44.923Z,1.50
2022-10-25T01:31:08.373Z,1.50
2022-10-25T01:41:30.221Z,1.70
2022-10-25T01:46:46.040Z,1.20
2022-10-25T01:51:47.694Z,1.43
2022-10-25T01:56:56.684Z,1.70
2022-10-25T02:02:03.219Z,1.50
2022-10-25T02:07:09.634Z,1.93
2022-10-25T02:12:14.939Z,1.90
2022-10-25T02:17:18.881Z,1.53
2022-10-25T02:22:22.351Z,1.90
2022-10-25T02:27:23.989Z,1.60
2022-10-25T02:32:25.643Z,1.70
2022-10-25T02:37:27.284Z,1.87
2022-10-25T02:42:28.896Z,1.80
2022-10-25T02:47:30.540Z,1.40
2022-10-25T02:52:32.242Z,1.90
2022-10-25T02:57:34.609Z,1.50
2022-10-25T03:02:36.250Z,1.27
2022-10-25T03:07:37.962Z,2.00
2022-10-25T03:12:39.613Z,1.50
2022-10-25T03:17:41.286Z,1.80
2022-10-25T03:22:42.939Z,1.70
2022-10-25T03:27:44.846Z,1.30
2022-10-25T03:32:46.645Z,1.67
2022-10-25T03:37:49.243Z,2.03
2022-10-25T03:42:51.043Z,2.00
2022-10-25T03:47:52.684Z,1.90
2022-10-25T03:52:54.346Z,2.03
2022-10-25T03:57:56.023Z,1.90
2022-10-25T04:03:01.865Z,2.20
2022-10-25T04:08:04.574Z,2.00
2022-10-25T04:13:06.265Z,2.00
2022-10-25T04:18:07.922Z,2.67
2022-10-25T04:23:09.570Z,1.93
2022-10-25T04:28:11.215Z,1.93
2022-10-25T04:33:12.885Z,2.07
2022-10-25T04:38:14.501Z,2.20
2022-10-25T04:43:16.120Z,2.10
2022-10-25T04:48:17.862Z,2.93
2022-10-25T04:53:19.518Z,2.57
2022-10-25T04:58:21.159Z,2.70
2022-10-25T05:03:22.866Z,3.00
2022-10-25T05:08:24.521Z,3.20
2022-10-25T05:13:26.158Z,2.80
2022-10-25T05:18:27.893Z,3.50
2022-10-25T05:23:29.876Z,3.30
2022-10-25T05:28:31.980Z,3.77
2022-10-25T05:33:33.696Z,3.63
2022-10-25T05:38:37.737Z,3.57
2022-10-25T05:43:39.836Z,3.27
2022-10-25T05:48:45.780Z,4.00
2022-10-25T05:53:51.304Z,3.23
2022-10-25T05:58:52.969Z,3.03
2022-10-25T06:03:55.058Z,3.50
2022-10-25T06:09:00.309Z,2.97
2022-10-25T06:14:02.013Z,3.50
2022-10-25T06:19:03.709Z,3.77
2022-10-25T06:24:05.659Z,3.53
2022-10-25T06:29:07.365Z,4.30
2022-10-25T06:34:09.061Z,4.27
2022-10-25T06:39:10.669Z,3.93
2022-10-25T06:44:12.352Z,4.10
2022-10-25T06:49:13.985Z,4.20
2022-10-25T06:54:15.636Z,4.60
2022-10-25T06:59:17.859Z,2.23
2022-10-25T07:04:19.614Z,1.20
2022-10-25T07:09:21.292Z,0.90
2022-10-25T07:14:22.995Z,0.60
2022-10-25T07:19:24.960Z,0.50
2022-10-25T07:24:26.610Z,0.70
2022-10-25T07:29:28.258Z,0.40
2022-10-25T07:34:29.972Z,0.50
2022-10-25T07:39:31.589Z,0.43
2022-10-25T07:44:33.501Z,0.33
2022-10-25T07:49:36.604Z,0.30
2022-10-25T07:54:38.330Z,0.40
2022-10-25T07:59:39.997Z,0.30
2022-10-25T08:04:41.986Z,0.30
2022-10-25T08:09:43.621Z,0.30
2022-10-25T08:14:47.476Z,0.30
2022-10-25T08:19:51.519Z,0.30
2022-10-25T08:24:53.678Z,0.30
2022-10-25T08:29:55.309Z,0.30
2022-10-25T08:34:56.960Z,0.30
2022-10-25T08:39:58.611Z,0.30
2022-10-25T08:45:13.395Z,0.30
2022-10-25T08:50:39.849Z,0.30
2022-10-25T08:55:58.677Z,0.30
2022-10-25T09:01:13.517Z,0.30
2022-10-25T09:06:21.098Z,0.20
2022-10-25T09:11:44.713Z,0.20
2022-10-25T09:16:53.504Z,0.30
2022-10-25T09:22:01.736Z,0.30
2022-10-25T09:27:07.830Z,0.20
2022-10-25T09:32:19.458Z,0.30
2022-10-25T09:37:25.505Z,0.20
2022-10-25T09:42:37.183Z,0.20
2022-10-25T09:47:56.006Z,0.30
2022-10-25T09:53:11.838Z,0.30
2022-10-25T09:58:23.314Z,0.20
2022-10-25T10:03:29.183Z,0.30
2022-10-25T10:08:32.433Z,0.30
2022-10-25T10:13:46.779Z,0.30
2022-10-25T10:18:48.792Z,0.20
2022-10-25T10:23:54.333Z,0.23
2022-10-25T10:29:17.566Z,0.20
2022-10-25T10:34:23.563Z,0.30
2022-10-25T10:39:25.195Z,0.30
2022-10-25T10:44:26.870Z,0.20
2022-10-25T10:49:37.713Z,0.30
2022-10-25T10:54:46.246Z,0.20
2022-10-25T10:59:55.733Z,0.20
2022-10-25T11:04:57.984Z,0.20
2022-10-25T11:10:18.863Z,0.20
2022-10-25T11:15:20.493Z,0.20
2022-10-25T11:20:37.307Z,0.30
2022-10-25T11:25:44.181Z,0.20
2022-10-25T11:30:57.843Z,1.63
2022-10-25T11:36:27.189Z,1.90
2022-10-25T11:41:51.516Z,2.03
2022-10-25T11:47:20.867Z,1.77
2022-10-25T11:52:54.644Z,1.53
2022-10-25T11:58:36.156Z,1.43
2022-10-25T12:03:55.888Z,1.70
2022-10-25T12:09:07.066Z,2.13
2022-10-25T12:14:12.181Z,1.87
2022-10-25T12:19:24.183Z,2.17
2022-10-25T12:24:45.659Z,2.30
2022-10-25T12:29:50.542Z,2.20
2022-10-25T12:34:53.492Z,2.33
2022-10-25T12:39:55.123Z,2.40
2022-10-25T12:45:32.612Z,2.17
2022-10-25T12:50:54.362Z,2.00
2022-10-25T12:56:03.465Z,2.30
2022-10-25T13:01:39.901Z,2.27
2022-10-25T13:06:48.053Z,2.60
2022-10-25T13:11:58.622Z,2.20
2022-10-25T13:17:16.730Z,2.60
2022-10-25T13:22:39.087Z,2.80
2022-10-25T13:28:15.880Z,2.10
2022-10-25T13:33:22.524Z,2.43
2022-10-25T13:38:28.054Z,2.60
2022-10-25T13:43:29.855Z,3.17
2022-10-25T13:48:35.110Z,2.90
2022-10-25T13:53:50.560Z,2.60
2022-10-25T13:58:53.056Z,2.67
2022-10-25T14:04:06.121Z,2.70
2022-10-25T14:09:32.676Z,2.40
2022-10-25T14:14:57.905Z,2.60
2022-10-25T14:20:07.747Z,2.83
2022-10-25T14:25:35.597Z,1.90
2022-10-25T14:30:42.225Z,2.17
2022-10-25T14:35:48.605Z,2.30
2022-10-25T14:41:01.695Z,2.30
2022-10-25T14:46:06.299Z,2.23
2022-10-25T14:51:22.846Z,2.40
2022-10-25T14:56:36.140Z,2.53
2022-10-25T15:01:37.885Z,2.37
2022-10-25T15:06:39.611Z,2.40
2022-10-25T15:11:41.261Z,2.33
2022-10-25T15:16:44.038Z,2.67
2022-10-25T15:21:52.489Z,2.40
2022-10-25T15:26:53.979Z,2.90
2022-10-25T15:31:55.633Z,3.13
2022-10-25T15:36:57.423Z,3.90
2022-10-25T15:41:59.094Z,3.37
2022-10-25T15:47:00.849Z,5.00
2022-10-25T15:52:02.486Z,3.63
2022-10-25T15:57:04.217Z,3.80
2022-10-25T16:02:17.841Z,2.90
2022-10-25T16:07:19.512Z,3.60
2022-10-25T16:12:24.361Z,3.80
2022-10-25T16:17:25.988Z,4.00
2022-10-25T16:22:27.649Z,4.80
2022-10-25T16:27:29.286Z,3.60
2022-10-25T16:32:30.938Z,3.40
2022-10-25T16:37:32.851Z,4.20
2022-10-25T16:42:35.609Z,3.37
2022-10-25T16:47:37.339Z,3.70
2022-10-25T16:52:39.005Z,6.10
2022-10-25T16:57:40.754Z,7.33
2022-10-25T17:02:42.535Z,7.10
2022-10-25T17:07:45.730Z,7.20
2022-10-25T17:12:49.355Z,8.50
2022-10-25T17:17:51.454Z,9.63
2022-10-25T17:22:54.529Z,8.73
2022-10-25T17:27:56.201Z,9.87
2022-10-25T17:32:57.845Z,10.90
2022-10-25T17:37:59.544Z,11.20
2022-10-25T17:43:01.290Z,11.97
2022-10-25T17:48:04.023Z,12.10
2022-10-25T17:53:05.671Z,13.07
2022-10-25T17:58:07.341Z,14.00
2022-10-25T18:03:09.073Z,11.77
2022-10-25T18:08:10.766Z,11.47
2022-10-25T18:13:12.436Z,11.87
2022-10-25T18:18:14.097Z,12.57
2022-10-25T18:23:16.214Z,13.07
2022-10-25T18:28:17.853Z,13.67
2022-10-25T18:33:23.692Z,13.47
2022-10-25T18:38:25.328Z,14.70
2022-10-25T18:43:27.086Z,14.70
2022-10-25T18:48:28.767Z,16.60
2022-10-25T18:53:31.766Z,16.03
2022-10-25T18:58:33.436Z,16.07
2022-10-25T19:03:35.170Z,17.47
2022-10-25T19:08:36.961Z,17.87
2022-10-25T19:13:38.994Z,16.07
2022-10-25T19:18:40.780Z,17.77
2022-10-25T19:23:44.572Z,18.30
2022-10-25T19:28:46.425Z,17.10
2022-10-25T19:33:48.668Z,16.53
2022-10-25T19:38:50.360Z,16.90
2022-10-25T19:43:52.267Z,14.90
2022-10-25T19:48:56.093Z,15.13
2022-10-25T19:53:57.856Z,15.80
2022-10-25T19:58:59.543Z,15.10
2022-10-25T20:04:01.309Z,16.20
2022-10-25T20:09:03.039Z,15.30
2022-10-25T20:14:04.725Z,16.10
2022-10-25T20:19:06.398Z,16.47
2022-10-25T20:24:08.797Z,17.13
2022-10-25T20:29:17.133Z,15.47
2022-10-25T20:34:22.087Z,15.73
2022-10-25T20:39:23.723Z,14.07
2022-10-25T20:44:25.392Z,15.90
2022-10-25T20:49:27.107Z,14.80
2022-10-25T20:54:28.799Z,14.83
2022-10-25T20:59:30.496Z,15.73
2022-10-25T21:09:53.775Z,14.20
2022-10-25T21:14:55.463Z,13.80
2022-10-25T21:19:57.139Z,13.80
2022-10-25T21:24:58.872Z,12.07
2022-10-25T21:30:00.492Z,11.50
2022-10-25T21:35:02.138Z,13.20
2022-10-25T21:40:04.691Z,11.93
2022-10-25T21:45:06.818Z,10.03
2022-10-25T21:50:09.240Z,10.00
2022-10-25T21:55:10.910Z,8.70
2022-10-25T22:00:12.766Z,8.73
2022-10-25T22:05:17.318Z,9.43
2022-10-25T22:10:18.981Z,8.93
2022-10-25T22:15:20.766Z,8.77
2022-10-25T22:20:22.445Z,7.77
2022-10-25T22:25:24.190Z,8.13
2022-10-25T22:30:25.858Z,8.13
2022-10-25T22:35:27.531Z,7.17
2022-10-25T22:40:29.195Z,7.40
2022-10-25T22:45:30.881Z,7.97
2022-10-25T22:50:32.534Z,8.00
2022-10-25T22:55:34.208Z,8.63
2022-10-25T23:00:35.846Z,7.70
2022-10-25T23:05:37.469Z,7.57
2022-10-25T23:10:39.149Z,7.23
2022-10-25T23:15:40.830Z,7.40
2022-10-25T23:21:01.637Z,6.30
2022-10-25T23:26:03.279Z,7.17
2022-10-25T23:31:05.943Z,6.73
2022-10-25T23:36:10.596Z,6.77
2022-10-25T23:41:12.582Z,7.30
2022-10-25T23:46:14.231Z,7.63
2022-10-25T23:51:17.257Z,7.17
2022-10-25T23:56:18.912Z,7.63
